sensor_id;sensor_type;location;lat;lon;timestamp;P1;durP1;ratioP1;P2;durP2;ratioP2
36241;SDS011;22283;42.748;12.732;2024-01-07T00:04:58;31.27;;;20.27;;
36241;SDS011;22283;42.748;12.732;2024-01-07T00:09:59;27.35;;;20.17;;
36241;SDS011;22283;42.748;12.732;2024-01-07T00:15:00;28.03;;;19.07;;
36241;SDS011;22283;42.748;12.732;2024-01-07T00:20:01;25.75;;;18.15;;
36241;SDS011;22283;42.748;12.732;2024-01-07T00:25:01;28.70;;;20.30;;
36241;SDS011;22283;42.748;12.732;2024-01-07T00:30:02;23.93;;;18.40;;
36241;SDS011;22283;42.748;12.732;2024-01-07T00:35:03;23.17;;;18.23;;
36241;SDS011;22283;42.748;12.732;2024-01-07T00:40:04;32.87;;;20.80;;
36241;SDS011;22283;42.748;12.732;2024-01-07T00:45:06;25.20;;;18.83;;
36241;SDS011;22283;42.748;12.732;2024-01-07T00:50:09;27.45;;;22.00;;
36241;SDS011;22283;42.748;12.732;2024-01-07T00:55:10;27.73;;;20.70;;
36241;SDS011;22283;42.748;12.732;2024-01-07T01:00:10;32.70;;;21.27;;
36241;SDS011;22283;42.748;12.732;2024-01-07T01:05:11;30.55;;;23.02;;
36241;SDS011;22283;42.748;12.732;2024-01-07T01:10:13;28.45;;;20.98;;
36241;SDS011;22283;42.748;12.732;2024-01-07T01:15:17;32.63;;;25.35;;
36241;SDS011;22283;42.748;12.732;2024-01-07T01:20:18;30.40;;;25.20;;
36241;SDS011;22283;42.748;12.732;2024-01-07T01:25:19;32.37;;;23.90;;
36241;SDS011;22283;42.748;12.732;2024-01-07T01:30:19;29.33;;;24.33;;
36241;SDS011;22283;42.748;12.732;2024-01-07T01:35:20;30.40;;;23.13;;
36241;SDS011;22283;42.748;12.732;2024-01-07T01:40:21;28.87;;;24.97;;
36241;SDS011;22283;42.748;12.732;2024-01-07T01:45:21;32.93;;;25.80;;
36241;SDS011;22283;42.748;12.732;2024-01-07T01:50:22;32.70;;;25.77;;
36241;SDS011;22283;42.748;12.732;2024-01-07T01:55:23;35.57;;;26.43;;
36241;SDS011;22283;42.748;12.732;2024-01-07T02:00:23;28.30;;;23.80;;
36241;SDS011;22283;42.748;12.732;2024-01-07T02:05:24;33.53;;;23.67;;
36241;SDS011;22283;42.748;12.732;2024-01-07T02:10:25;32.97;;;26.27;;
36241;SDS011;22283;42.748;12.732;2024-01-07T02:15:26;33.77;;;24.93;;
36241;SDS011;22283;42.748;12.732;2024-01-07T02:20:27;38.25;;;27.77;;
36241;SDS011;22283;42.748;12.732;2024-01-07T02:25:28;35.87;;;29.33;;
36241;SDS011;22283;42.748;12.732;2024-01-07T02:30:28;37.60;;;28.10;;
36241;SDS011;22283;42.748;12.732;2024-01-07T02:35:29;34.00;;;24.73;;
36241;SDS011;22283;42.748;12.732;2024-01-07T02:40:30;28.37;;;22.17;;
36241;SDS011;22283;42.748;12.732;2024-01-07T02:45:34;23.97;;;18.97;;
36241;SDS011;22283;42.748;12.732;2024-01-07T02:50:35;24.20;;;17.48;;
36241;SDS011;22283;42.748;12.732;2024-01-07T02:55:36;19.30;;;15.30;;
36241;SDS011;22283;42.748;12.732;2024-01-07T03:00:36;19.60;;;13.23;;
36241;SDS011;22283;42.748;12.732;2024-01-07T03:05:37;16.77;;;14.07;;
36241;SDS011;22283;42.748;12.732;2024-01-07T03:10:38;20.93;;;15.00;;
36241;SDS011;22283;42.748;12.732;2024-01-07T03:15:39;17.80;;;14.10;;
36241;SDS011;22283;42.748;12.732;2024-01-07T03:20:40;20.75;;;14.70;;
36241;SDS011;22283;42.748;12.732;2024-01-07T03:25:41;16.47;;;13.07;;
36241;SDS011;22283;42.748;12.732;2024-01-07T03:30:42;14.20;;;11.80;;
36241;SDS011;22283;42.748;12.732;2024-01-07T03:35:42;17.33;;;12.50;;
36241;SDS011;22283;42.748;12.732;2024-01-07T03:40:43;17.83;;;11.33;;
36241;SDS011;22283;42.748;12.732;2024-01-07T03:45:44;14.20;;;11.30;;
36241;SDS011;22283;42.748;12.732;2024-01-07T03:50:45;21.23;;;10.73;;
36241;SDS011;22283;42.748;12.732;2024-01-07T03:55:46;17.97;;;13.63;;
36241;SDS011;22283;42.748;12.732;2024-01-07T04:00:47;13.43;;;10.23;;
36241;SDS011;22283;42.748;12.732;2024-01-07T04:05:47;13.37;;;11.23;;
36241;SDS011;22283;42.748;12.732;2024-01-07T04:10:48;13.43;;;11.13;;
36241;SDS011;22283;42.748;12.732;2024-01-07T04:15:49;13.80;;;11.00;;
36241;SDS011;22283;42.748;12.732;2024-01-07T04:20:50;14.27;;;11.95;;
36241;SDS011;22283;42.748;12.732;2024-01-07T04:25:51;15.47;;;12.53;;
36241;SDS011;22283;42.748;12.732;2024-01-07T04:30:52;13.10;;;11.63;;
36241;SDS011;22283;42.748;12.732;2024-01-07T04:35:52;13.30;;;11.53;;
36241;SDS011;22283;42.748;12.732;2024-01-07T04:40:58;17.40;;;12.45;;
36241;SDS011;22283;42.748;12.732;2024-01-07T04:45:58;18.07;;;12.10;;
36241;SDS011;22283;42.748;12.732;2024-01-07T04:50:59;14.27;;;12.20;;
36241;SDS011;22283;42.748;12.732;2024-01-07T04:56:00;15.67;;;11.80;;
36241;SDS011;22283;42.748;12.732;2024-01-07T05:01:03;13.10;;;11.37;;
36241;SDS011;22283;42.748;12.732;2024-01-07T05:06:03;13.25;;;10.68;;
36241;SDS011;22283;42.748;12.732;2024-01-07T05:11:04;12.30;;;10.30;;
36241;SDS011;22283;42.748;12.732;2024-01-07T05:16:05;11.67;;;9.47;;
36241;SDS011;22283;42.748;12.732;2024-01-07T05:26:07;13.15;;;10.38;;
36241;SDS011;22283;42.748;12.732;2024-01-07T05:31:17;11.53;;;8.67;;
36241;SDS011;22283;42.748;12.732;2024-01-07T05:36:18;14.15;;;10.43;;
36241;SDS011;22283;42.748;12.732;2024-01-07T05:41:19;14.43;;;9.77;;
36241;SDS011;22283;42.748;12.732;2024-01-07T05:46:20;15.43;;;9.80;;
36241;SDS011;22283;42.748;12.732;2024-01-07T05:51:20;12.23;;;7.93;;
36241;SDS011;22283;42.748;12.732;2024-01-07T05:56:21;12.50;;;8.20;;
36241;SDS011;22283;42.748;12.732;2024-01-07T06:01:22;14.70;;;8.97;;
36241;SDS011;22283;42.748;12.732;2024-01-07T06:06:22;9.10;;;6.90;;
36241;SDS011;22283;42.748;12.732;2024-01-07T06:11:23;8.83;;;6.07;;
36241;SDS011;22283;42.748;12.732;2024-01-07T06:16:24;8.43;;;5.30;;
36241;SDS011;22283;42.748;12.732;2024-01-07T06:21:25;9.77;;;4.50;;
36241;SDS011;22283;42.748;12.732;2024-01-07T06:26:25;6.43;;;4.23;;
36241;SDS011;22283;42.748;12.732;2024-01-07T06:31:26;7.97;;;5.00;;
36241;SDS011;22283;42.748;12.732;2024-01-07T06:36:27;6.23;;;4.60;;
36241;SDS011;22283;42.748;12.732;2024-01-07T06:41:28;4.73;;;3.87;;
36241;SDS011;22283;42.748;12.732;2024-01-07T06:46:29;4.57;;;3.65;;
36241;SDS011;22283;42.748;12.732;2024-01-07T06:51:29;5.83;;;4.13;;
36241;SDS011;22283;42.748;12.732;2024-01-07T06:56:30;4.90;;;3.10;;
36241;SDS011;22283;42.748;12.732;2024-01-07T07:01:30;5.53;;;4.10;;
36241;SDS011;22283;42.748;12.732;2024-01-07T07:06:31;4.43;;;3.30;;
36241;SDS011;22283;42.748;12.732;2024-01-07T07:11:32;4.80;;;3.20;;
36241;SDS011;22283;42.748;12.732;2024-01-07T07:16:33;6.50;;;3.87;;
36241;SDS011;22283;42.748;12.732;2024-01-07T07:21:33;8.33;;;5.73;;
36241;SDS011;22283;42.748;12.732;2024-01-07T07:26:34;5.23;;;3.77;;
36241;SDS011;22283;42.748;12.732;2024-01-07T07:31:36;5.63;;;3.67;;
36241;SDS011;22283;42.748;12.732;2024-01-07T07:36:37;7.20;;;3.13;;
36241;SDS011;22283;42.748;12.732;2024-01-07T07:41:40;4.35;;;3.03;;
36241;SDS011;22283;42.748;12.732;2024-01-07T07:46:42;9.57;;;3.85;;
36241;SDS011;22283;42.748;12.732;2024-01-07T07:51:43;7.40;;;5.67;;
36241;SDS011;22283;42.748;12.732;2024-01-07T07:56:44;7.57;;;5.53;;
36241;SDS011;22283;42.748;12.732;2024-01-07T08:01:46;7.50;;;4.90;;
36241;SDS011;22283;42.748;12.732;2024-01-07T08:06:47;8.23;;;4.67;;
36241;SDS011;22283;42.748;12.732;2024-01-07T08:11:48;8.80;;;6.63;;
36241;SDS011;22283;42.748;12.732;2024-01-07T08:16:48;11.03;;;6.40;;
36241;SDS011;22283;42.748;12.732;2024-01-07T08:21:49;11.70;;;6.17;;
36241;SDS011;22283;42.748;12.732;2024-01-07T08:26:50;5.57;;;3.63;;
36241;SDS011;22283;42.748;12.732;2024-01-07T08:32:09;4.32;;;2.45;;
36241;SDS011;22283;42.748;12.732;2024-01-07T08:37:09;6.57;;;4.90;;
36241;SDS011;22283;42.748;12.732;2024-01-07T08:42:10;5.93;;;3.47;;
36241;SDS011;22283;42.748;12.732;2024-01-07T08:47:11;5.63;;;3.87;;
36241;SDS011;22283;42.748;12.732;2024-01-07T08:52:12;5.43;;;4.10;;
36241;SDS011;22283;42.748;12.732;2024-01-07T08:57:12;7.40;;;4.13;;
36241;SDS011;22283;42.748;12.732;2024-01-07T09:02:13;12.13;;;7.70;;
36241;SDS011;22283;42.748;12.732;2024-01-07T09:07:14;6.93;;;3.60;;
36241;SDS011;22283;42.748;12.732;2024-01-07T09:12:16;4.47;;;3.20;;
36241;SDS011;22283;42.748;12.732;2024-01-07T09:17:17;5.60;;;4.07;;
36241;SDS011;22283;42.748;12.732;2024-01-07T09:22:19;7.07;;;4.50;;
36241;SDS011;22283;42.748;12.732;2024-01-07T09:27:19;3.90;;;3.10;;
36241;SDS011;22283;42.748;12.732;2024-01-07T09:32:20;6.17;;;4.13;;
36241;SDS011;22283;42.748;12.732;2024-01-07T09:37:20;4.60;;;3.30;;
36241;SDS011;22283;42.748;12.732;2024-01-07T09:42:21;5.63;;;3.90;;
36241;SDS011;22283;42.748;12.732;2024-01-07T09:47:21;4.30;;;3.00;;
36241;SDS011;22283;42.748;12.732;2024-01-07T09:52:24;7.95;;;5.15;;
36241;SDS011;22283;42.748;12.732;2024-01-07T09:57:25;8.73;;;6.15;;
36241;SDS011;22283;42.748;12.732;2024-01-07T10:02:26;5.20;;;4.07;;
36241;SDS011;22283;42.748;12.732;2024-01-07T10:07:27;7.83;;;5.07;;
36241;SDS011;22283;42.748;12.732;2024-01-07T10:12:28;5.73;;;4.20;;
36241;SDS011;22283;42.748;12.732;2024-01-07T10:17:28;7.03;;;4.93;;
36241;SDS011;22283;42.748;12.732;2024-01-07T10:22:30;8.37;;;5.50;;
36241;SDS011;22283;42.748;12.732;2024-01-07T10:27:35;7.53;;;5.25;;
36241;SDS011;22283;42.748;12.732;2024-01-07T10:32:36;6.63;;;4.63;;
36241;SDS011;22283;42.748;12.732;2024-01-07T10:37:38;6.17;;;4.60;;
36241;SDS011;22283;42.748;12.732;2024-01-07T10:42:39;7.18;;;4.18;;
36241;SDS011;22283;42.748;12.732;2024-01-07T10:47:43;9.60;;;6.15;;
36241;SDS011;22283;42.748;12.732;2024-01-07T10:52:54;9.43;;;5.13;;
36241;SDS011;22283;42.748;12.732;2024-01-07T10:58:00;6.00;;;4.28;;
36241;SDS011;22283;42.748;12.732;2024-01-07T11:13:34;6.18;;;4.03;;
36241;SDS011;22283;42.748;12.732;2024-01-07T11:18:39;4.93;;;3.30;;
36241;SDS011;22283;42.748;12.732;2024-01-07T11:23:47;5.00;;;3.25;;
36241;SDS011;22283;42.748;12.732;2024-01-07T11:28:49;6.97;;;3.90;;
36241;SDS011;22283;42.748;12.732;2024-01-07T11:33:53;7.35;;;4.22;;
36241;SDS011;22283;42.748;12.732;2024-01-07T11:38:55;6.32;;;4.55;;
36241;SDS011;22283;42.748;12.732;2024-01-07T11:43:58;8.85;;;7.65;;
36241;SDS011;22283;42.748;12.732;2024-01-07T11:49:00;7.22;;;5.10;;
36241;SDS011;22283;42.748;12.732;2024-01-07T11:54:02;5.93;;;3.90;;
36241;SDS011;22283;42.748;12.732;2024-01-07T11:59:03;6.93;;;3.03;;
36241;SDS011;22283;42.748;12.732;2024-01-07T12:04:03;12.73;;;6.13;;
36241;SDS011;22283;42.748;12.732;2024-01-07T12:09:04;12.77;;;5.10;;
36241;SDS011;22283;42.748;12.732;2024-01-07T12:14:06;4.82;;;3.15;;
36241;SDS011;22283;42.748;12.732;2024-01-07T12:19:11;5.13;;;3.40;;
36241;SDS011;22283;42.748;12.732;2024-01-07T12:24:12;7.30;;;3.97;;
36241;SDS011;22283;42.748;12.732;2024-01-07T12:29:13;6.80;;;3.90;;
36241;SDS011;22283;42.748;12.732;2024-01-07T12:34:14;9.87;;;6.03;;
36241;SDS011;22283;42.748;12.732;2024-01-07T12:39:15;7.00;;;4.57;;
36241;SDS011;22283;42.748;12.732;2024-01-07T12:44:16;7.93;;;4.77;;
36241;SDS011;22283;42.748;12.732;2024-01-07T12:49:17;9.70;;;6.93;;
36241;SDS011;22283;42.748;12.732;2024-01-07T12:54:18;6.17;;;3.80;;
36241;SDS011;22283;42.748;12.732;2024-01-07T12:59:19;13.50;;;8.73;;
36241;SDS011;22283;42.748;12.732;2024-01-07T13:04:20;8.33;;;4.70;;
36241;SDS011;22283;42.748;12.732;2024-01-07T13:09:21;10.10;;;4.60;;
36241;SDS011;22283;42.748;12.732;2024-01-07T13:14:21;12.37;;;7.40;;
36241;SDS011;22283;42.748;12.732;2024-01-07T13:19:22;9.90;;;6.37;;
36241;SDS011;22283;42.748;12.732;2024-01-07T13:24:23;30.53;;;22.00;;
36241;SDS011;22283;42.748;12.732;2024-01-07T13:29:24;12.00;;;7.33;;
36241;SDS011;22283;42.748;12.732;2024-01-07T13:34:25;7.63;;;5.50;;
36241;SDS011;22283;42.748;12.732;2024-01-07T13:39:25;8.13;;;5.30;;
36241;SDS011;22283;42.748;12.732;2024-01-07T13:44:26;8.63;;;4.30;;
36241;SDS011;22283;42.748;12.732;2024-01-07T13:49:27;9.27;;;4.17;;
36241;SDS011;22283;42.748;12.732;2024-01-07T13:54:28;7.63;;;4.68;;
36241;SDS011;22283;42.748;12.732;2024-01-07T13:59:29;15.43;;;7.17;;
36241;SDS011;22283;42.748;12.732;2024-01-07T14:04:29;7.03;;;4.60;;
36241;SDS011;22283;42.748;12.732;2024-01-07T14:09:30;13.10;;;8.30;;
36241;SDS011;22283;42.748;12.732;2024-01-07T14:14:31;7.40;;;5.93;;
36241;SDS011;22283;42.748;12.732;2024-01-07T14:19:33;8.67;;;5.27;;
36241;SDS011;22283;42.748;12.732;2024-01-07T14:24:33;11.48;;;7.57;;
36241;SDS011;22283;42.748;12.732;2024-01-07T14:29:34;6.70;;;4.17;;
36241;SDS011;22283;42.748;12.732;2024-01-07T14:34:37;7.33;;;3.23;;
36241;SDS011;22283;42.748;12.732;2024-01-07T14:39:39;6.70;;;3.67;;
36241;SDS011;22283;42.748;12.732;2024-01-07T14:44:40;7.63;;;4.67;;
36241;SDS011;22283;42.748;12.732;2024-01-07T14:49:41;7.80;;;4.30;;
36241;SDS011;22283;42.748;12.732;2024-01-07T14:54:42;15.15;;;8.93;;
36241;SDS011;22283;42.748;12.732;2024-01-07T14:59:43;7.00;;;4.97;;
36241;SDS011;22283;42.748;12.732;2024-01-07T15:04:44;8.37;;;4.57;;
36241;SDS011;22283;42.748;12.732;2024-01-07T15:09:45;11.23;;;6.43;;
36241;SDS011;22283;42.748;12.732;2024-01-07T15:14:45;7.87;;;4.20;;
36241;SDS011;22283;42.748;12.732;2024-01-07T15:19:47;6.40;;;4.65;;
36241;SDS011;22283;42.748;12.732;2024-01-07T15:24:47;9.17;;;5.87;;
36241;SDS011;22283;42.748;12.732;2024-01-07T15:29:48;7.57;;;4.83;;
36241;SDS011;22283;42.748;12.732;2024-01-07T15:34:48;7.53;;;4.67;;
36241;SDS011;22283;42.748;12.732;2024-01-07T15:39:49;7.40;;;5.20;;
36241;SDS011;22283;42.748;12.732;2024-01-07T15:44:52;10.50;;;6.18;;
36241;SDS011;22283;42.748;12.732;2024-01-07T15:49:52;19.03;;;12.13;;
36241;SDS011;22283;42.748;12.732;2024-01-07T15:54:54;8.65;;;5.75;;
36241;SDS011;22283;42.748;12.732;2024-01-07T15:59:55;7.80;;;4.28;;
36241;SDS011;22283;42.748;12.732;2024-01-07T16:04:55;5.90;;;3.90;;
36241;SDS011;22283;42.748;12.732;2024-01-07T16:09:56;12.40;;;8.27;;
36241;SDS011;22283;42.748;12.732;2024-01-07T16:14:57;13.23;;;8.73;;
36241;SDS011;22283;42.748;12.732;2024-01-07T16:19:58;13.15;;;6.95;;
36241;SDS011;22283;42.748;12.732;2024-01-07T16:24:59;14.60;;;8.13;;
36241;SDS011;22283;42.748;12.732;2024-01-07T16:29:59;15.87;;;8.87;;
36241;SDS011;22283;42.748;12.732;2024-01-07T16:35:00;11.17;;;5.77;;
36241;SDS011;22283;42.748;12.732;2024-01-07T16:40:01;7.83;;;5.40;;
36241;SDS011;22283;42.748;12.732;2024-01-07T16:45:02;8.20;;;6.05;;
36241;SDS011;22283;42.748;12.732;2024-01-07T16:50:03;8.50;;;6.00;;
36241;SDS011;22283;42.748;12.732;2024-01-07T16:55:05;9.10;;;5.93;;
36241;SDS011;22283;42.748;12.732;2024-01-07T17:00:08;11.07;;;6.45;;
36241;SDS011;22283;42.748;12.732;2024-01-07T17:10:10;17.05;;;11.82;;
36241;SDS011;22283;42.748;12.732;2024-01-07T17:20:14;9.63;;;6.27;;
36241;SDS011;22283;42.748;12.732;2024-01-07T17:25:17;12.75;;;8.38;;
36241;SDS011;22283;42.748;12.732;2024-01-07T17:30:18;13.83;;;8.80;;
36241;SDS011;22283;42.748;12.732;2024-01-07T17:35:22;10.75;;;8.05;;
36241;SDS011;22283;42.748;12.732;2024-01-07T17:40:37;16.83;;;10.65;;
36241;SDS011;22283;42.748;12.732;2024-01-07T17:45:38;8.07;;;5.97;;
36241;SDS011;22283;42.748;12.732;2024-01-07T17:50:38;9.77;;;6.93;;
36241;SDS011;22283;42.748;12.732;2024-01-07T17:55:40;11.82;;;8.60;;
36241;SDS011;22283;42.748;12.732;2024-01-07T18:00:40;14.50;;;9.30;;
36241;SDS011;22283;42.748;12.732;2024-01-07T18:05:41;16.57;;;9.77;;
36241;SDS011;22283;42.748;12.732;2024-01-07T18:10:42;14.57;;;6.80;;
36241;SDS011;22283;42.748;12.732;2024-01-07T18:15:43;10.27;;;7.10;;
36241;SDS011;22283;42.748;12.732;2024-01-07T18:20:44;10.43;;;7.00;;
36241;SDS011;22283;42.748;12.732;2024-01-07T18:25:45;9.97;;;6.83;;
36241;SDS011;22283;42.748;12.732;2024-01-07T18:30:48;11.93;;;7.45;;
36241;SDS011;22283;42.748;12.732;2024-01-07T18:35:48;12.80;;;7.40;;
36241;SDS011;22283;42.748;12.732;2024-01-07T18:40:49;18.40;;;11.30;;
36241;SDS011;22283;42.748;12.732;2024-01-07T18:45:51;30.75;;;17.63;;
36241;SDS011;22283;42.748;12.732;2024-01-07T18:50:53;14.50;;;9.60;;
36241;SDS011;22283;42.748;12.732;2024-01-07T18:55:56;12.80;;;9.20;;
36241;SDS011;22283;42.748;12.732;2024-01-07T19:00:57;10.47;;;8.13;;
36241;SDS011;22283;42.748;12.732;2024-01-07T19:05:58;29.75;;;18.90;;
36241;SDS011;22283;42.748;12.732;2024-01-07T19:10:59;18.73;;;13.57;;
36241;SDS011;22283;42.748;12.732;2024-01-07T19:15:59;11.63;;;8.27;;
36241;SDS011;22283;42.748;12.732;2024-01-07T19:21:00;14.33;;;10.53;;
36241;SDS011;22283;42.748;12.732;2024-01-07T19:26:00;13.53;;;9.37;;
36241;SDS011;22283;42.748;12.732;2024-01-07T19:31:01;21.40;;;13.53;;
36241;SDS011;22283;42.748;12.732;2024-01-07T19:36:02;20.00;;;13.67;;
36241;SDS011;22283;42.748;12.732;2024-01-07T19:46:05;20.25;;;14.15;;
36241;SDS011;22283;42.748;12.732;2024-01-07T19:51:06;17.00;;;10.97;;
36241;SDS011;22283;42.748;12.732;2024-01-07T19:56:06;11.23;;;8.43;;
36241;SDS011;22283;42.748;12.732;2024-01-07T20:01:08;14.63;;;9.88;;
36241;SDS011;22283;42.748;12.732;2024-01-07T20:06:12;26.17;;;16.13;;
36241;SDS011;22283;42.748;12.732;2024-01-07T20:16:18;19.60;;;13.73;;
36241;SDS011;22283;42.748;12.732;2024-01-07T20:21:24;28.20;;;19.98;;
36241;SDS011;22283;42.748;12.732;2024-01-07T20:26:26;19.77;;;14.18;;
36241;SDS011;22283;42.748;12.732;2024-01-07T20:31:28;19.50;;;14.50;;
36241;SDS011;22283;42.748;12.732;2024-01-07T20:36:31;17.25;;;10.27;;
36241;SDS011;22283;42.748;12.732;2024-01-07T20:41:32;20.37;;;11.77;;
36241;SDS011;22283;42.748;12.732;2024-01-07T20:46:33;14.80;;;11.47;;
36241;SDS011;22283;42.748;12.732;2024-01-07T20:51:36;15.80;;;11.60;;
36241;SDS011;22283;42.748;12.732;2024-01-07T20:56:36;17.33;;;10.85;;
36241;SDS011;22283;42.748;12.732;2024-01-07T21:01:37;16.37;;;12.37;;
36241;SDS011;22283;42.748;12.732;2024-01-07T21:06:38;20.73;;;13.73;;
36241;SDS011;22283;42.748;12.732;2024-01-07T21:11:39;21.77;;;15.73;;
36241;SDS011;22283;42.748;12.732;2024-01-07T21:16:39;18.43;;;14.97;;
36241;SDS011;22283;42.748;12.732;2024-01-07T21:21:40;16.20;;;13.37;;
36241;SDS011;22283;42.748;12.732;2024-01-07T21:26:41;19.67;;;13.53;;
36241;SDS011;22283;42.748;12.732;2024-01-07T21:36:43;26.73;;;19.05;;
36241;SDS011;22283;42.748;12.732;2024-01-07T21:41:44;22.70;;;16.27;;
36241;SDS011;22283;42.748;12.732;2024-01-07T21:46:46;31.58;;;22.58;;
36241;SDS011;22283;42.748;12.732;2024-01-07T21:51:47;25.77;;;19.20;;
36241;SDS011;22283;42.748;12.732;2024-01-07T21:56:48;35.20;;;26.13;;
36241;SDS011;22283;42.748;12.732;2024-01-07T22:01:50;43.78;;;28.67;;
36241;SDS011;22283;42.748;12.732;2024-01-07T22:06:51;39.03;;;27.13;;
36241;SDS011;22283;42.748;12.732;2024-01-07T22:11:51;33.40;;;25.17;;
36241;SDS011;22283;42.748;12.732;2024-01-07T22:16:53;36.95;;;24.77;;
36241;SDS011;22283;42.748;12.732;2024-01-07T22:21:54;37.40;;;28.10;;
36241;SDS011;22283;42.748;12.732;2024-01-07T22:26:54;35.30;;;23.67;;
36241;SDS011;22283;42.748;12.732;2024-01-07T22:31:55;28.53;;;19.67;;
36241;SDS011;22283;42.748;12.732;2024-01-07T22:36:56;27.97;;;20.27;;
36241;SDS011;22283;42.748;12.732;2024-01-07T22:41:56;28.40;;;20.77;;
36241;SDS011;22283;42.748;12.732;2024-01-07T22:46:57;23.20;;;15.23;;
36241;SDS011;22283;42.748;12.732;2024-01-07T22:51:57;24.97;;;17.50;;
36241;SDS011;22283;42.748;12.732;2024-01-07T22:56:58;20.80;;;14.17;;
36241;SDS011;22283;42.748;12.732;2024-01-07T23:02:00;21.60;;;15.33;;
36241;SDS011;22283;42.748;12.732;2024-01-07T23:07:01;20.45;;;15.25;;
36241;SDS011;22283;42.748;12.732;2024-01-07T23:12:01;24.00;;;15.27;;
36241;SDS011;22283;42.748;12.732;2024-01-07T23:17:03;19.65;;;15.07;;
36241;SDS011;22283;42.748;12.732;2024-01-07T23:22:04;17.25;;;11.50;;
36241;SDS011;22283;42.748;12.732;2024-01-07T23:27:05;17.57;;;10.50;;
36241;SDS011;22283;42.748;12.732;2024-01-07T23:32:05;13.73;;;10.40;;
36241;SDS011;22283;42.748;12.732;2024-01-07T23:37:07;14.43;;;10.90;;
36241;SDS011;22283;42.748;12.732;2024-01-07T23:42:07;16.23;;;10.67;;
36241;SDS011;22283;42.748;12.732;2024-01-07T23:47:08;15.30;;;10.97;;
36241;SDS011;22283;42.748;12.732;2024-01-07T23:52:09;12.97;;;9.03;;
36241;SDS011;22283;42.748;12.732;2024-01-07T23:57:10;14.35;;;9.30;;
